sensor_id;sensor_type;location;lat;lon;timestamp;temperature;humidity
8965;DHT22;4517;49.020;12.066;2022-09-24T00:01:10;7.30;99.90
8965;DHT22;4517;49.020;12.066;2022-09-24T00:03:37;7.30;99.90
8965;DHT22;4517;49.020;12.066;2022-09-24T00:06:04;7.30;99.90
8965;DHT22;4517;49.020;12.066;2022-09-24T00:08:30;7.20;99.90
8965;DHT22;4517;49.020;12.066;2022-09-24T00:11:03;7.20;99.90
8965;DHT22;4517;49.020;12.066;2022-09-24T00:13:29;7.20;99.90
8965;DHT22;4517;49.020;12.066;2022-09-24T00:15:55;7.20;99.90
8965;DHT22;4517;49.020;12.066;2022-09-24T00:18:20;7.20;99.90
8965;DHT22;4517;49.020;12.066;2022-09-24T00:20:47;7.10;99.90
8965;DHT22;4517;49.020;12.066;2022-09-24T00:23:13;7.10;99.90
8965;DHT22;4517;49.020;12.066;2022-09-24T00:25:42;7.20;99.90
8965;DHT22;4517;49.020;12.066;2022-09-24T00:28:27;7.20;99.90
8965;DHT22;4517;49.020;12.066;2022-09-24T00:30:53;7.20;99.90
8965;DHT22;4517;49.020;12.066;2022-09-24T00:33:18;7.30;99.90
8965;DHT22;4517;49.020;12.066;2022-09-24T00:35:44;7.20;99.90
8965;DHT22;4517;49.020;12.066;2022-09-24T00:38:10;7.20;99.90
8965;DHT22;4517;49.020;12.066;2022-09-24T00:40:36;7.10;99.90
8965;DHT22;4517;49.020;12.066;2022-09-24T00:43:23;7.10;99.90
8965;DHT22;4517;49.020;12.066;2022-09-24T00:45:51;7.10;99.90
8965;DHT22;4517;49.020;12.066;2022-09-24T00:48:18;7.10;99.90
8965;DHT22;4517;49.020;12.066;2022-09-24T00:50:44;7.10;99.90
8965;DHT22;4517;49.020;12.066;2022-09-24T00:53:17;7.10;99.90
8965;DHT22;4517;49.020;12.066;2022-09-24T00:55:46;7.00;99.90
8965;DHT22;4517;49.020;12.066;2022-09-24T00:58:14;7.00;99.90
8965;DHT22;4517;49.020;12.066;2022-09-24T01:00:41;7.10;99.90
8965;DHT22;4517;49.020;12.066;2022-09-24T01:03:22;7.20;99.90
8965;DHT22;4517;49.020;12.066;2022-09-24T01:05:49;7.30;99.90
8965;DHT22;4517;49.020;12.066;2022-09-24T01:08:16;7.30;99.90
8965;DHT22;4517;49.020;12.066;2022-09-24T01:21:57;7.20;99.90
8965;DHT22;4517;49.020;12.066;2022-09-24T01:24:51;7.20;99.90
8965;DHT22;4517;49.020;12.066;2022-09-24T01:30:20;7.20;99.90
8965;DHT22;4517;49.020;12.066;2022-09-24T01:32:51;7.20;99.90
8965;DHT22;4517;49.020;12.066;2022-09-24T01:35:22;7.20;99.90
8965;DHT22;4517;49.020;12.066;2022-09-24T01:37:59;7.20;99.90
8965;DHT22;4517;49.020;12.066;2022-09-24T01:40:26;7.20;99.90
8965;DHT22;4517;49.020;12.066;2022-09-24T01:42:54;7.20;99.90
8965;DHT22;4517;49.020;12.066;2022-09-24T01:45:20;7.20;99.90
8965;DHT22;4517;49.020;12.066;2022-09-24T01:47:46;7.20;99.90
8965;DHT22;4517;49.020;12.066;2022-09-24T01:50:15;7.20;99.90
8965;DHT22;4517;49.020;12.066;2022-09-24T01:52:52;7.20;99.90
8965;DHT22;4517;49.020;12.066;2022-09-24T01:55:23;7.20;99.90
8965;DHT22;4517;49.020;12.066;2022-09-24T01:58:00;7.30;99.90
8965;DHT22;4517;49.020;12.066;2022-09-24T02:00:27;7.30;99.90
8965;DHT22;4517;49.020;12.066;2022-09-24T02:03:07;7.30;99.90
8965;DHT22;4517;49.020;12.066;2022-09-24T02:06:32;7.40;99.90
8965;DHT22;4517;49.020;12.066;2022-09-24T02:08:37;7.50;99.90
8965;DHT22;4517;49.020;12.066;2022-09-24T02:11:16;7.50;99.90
8965;DHT22;4517;49.020;12.066;2022-09-24T02:13:43;7.40;99.90
8965;DHT22;4517;49.020;12.066;2022-09-24T02:16:12;7.40;99.90
8965;DHT22;4517;49.020;12.066;2022-09-24T02:18:42;7.30;99.90
8965;DHT22;4517;49.020;12.066;2022-09-24T02:21:11;7.40;99.90
8965;DHT22;4517;49.020;12.066;2022-09-24T02:23:41;7.30;99.90
8965;DHT22;4517;49.020;12.066;2022-09-24T02:26:08;7.30;99.90
8965;DHT22;4517;49.020;12.066;2022-09-24T02:28:35;7.20;99.90
8965;DHT22;4517;49.020;12.066;2022-09-24T02:31:21;7.30;99.90
8965;DHT22;4517;49.020;12.066;2022-09-24T02:33:50;7.20;99.90
8965;DHT22;4517;49.020;12.066;2022-09-24T02:36:35;7.20;99.90
8965;DHT22;4517;49.020;12.066;2022-09-24T02:39:00;7.10;99.90
8965;DHT22;4517;49.020;12.066;2022-09-24T02:41:27;7.10;99.90
8965;DHT22;4517;49.020;12.066;2022-09-24T02:43:54;7.10;99.90
8965;DHT22;4517;49.020;12.066;2022-09-24T02:46:20;7.10;99.90
8965;DHT22;4517;49.020;12.066;2022-09-24T02:48:45;7.10;99.90
8965;DHT22;4517;49.020;12.066;2022-09-24T02:51:11;7.10;99.90
8965;DHT22;4517;49.020;12.066;2022-09-24T02:53:36;7.10;99.90
8965;DHT22;4517;49.020;12.066;2022-09-24T02:56:02;7.00;99.90
8965;DHT22;4517;49.020;12.066;2022-09-24T02:58:29;6.90;99.90
8965;DHT22;4517;49.020;12.066;2022-09-24T03:00:55;6.90;99.90
8965;DHT22;4517;49.020;12.066;2022-09-24T03:03:22;6.90;99.90
8965;DHT22;4517;49.020;12.066;2022-09-24T03:05:49;6.80;99.90
8965;DHT22;4517;49.020;12.066;2022-09-24T03:08:17;6.80;99.90
8965;DHT22;4517;49.020;12.066;2022-09-24T03:10:43;6.70;99.90
8965;DHT22;4517;49.020;12.066;2022-09-24T03:13:08;6.60;99.90
8965;DHT22;4517;49.020;12.066;2022-09-24T03:15:35;6.40;99.90
8965;DHT22;4517;49.020;12.066;2022-09-24T03:18:00;6.40;99.90
8965;DHT22;4517;49.020;12.066;2022-09-24T03:20:26;6.40;99.90
8965;DHT22;4517;49.020;12.066;2022-09-24T03:22:52;6.40;99.90
8965;DHT22;4517;49.020;12.066;2022-09-24T03:25:18;6.30;99.90
8965;DHT22;4517;49.020;12.066;2022-09-24T03:27:44;6.30;99.90
8965;DHT22;4517;49.020;12.066;2022-09-24T03:30:10;6.20;99.90
8965;DHT22;4517;49.020;12.066;2022-09-24T03:32:54;6.20;99.90
8965;DHT22;4517;49.020;12.066;2022-09-24T03:35:20;6.30;99.90
8965;DHT22;4517;49.020;12.066;2022-09-24T03:37:46;6.20;99.90
8965;DHT22;4517;49.020;12.066;2022-09-24T03:40:11;6.20;99.90
8965;DHT22;4517;49.020;12.066;2022-09-24T03:42:37;6.20;99.90
8965;DHT22;4517;49.020;12.066;2022-09-24T03:45:03;6.20;99.90
8965;DHT22;4517;49.020;12.066;2022-09-24T03:47:29;6.20;99.90
8965;DHT22;4517;49.020;12.066;2022-09-24T03:49:55;6.20;99.90
8965;DHT22;4517;49.020;12.066;2022-09-24T03:52:21;6.10;99.90
8965;DHT22;4517;49.020;12.066;2022-09-24T03:54:47;6.20;99.90
8965;DHT22;4517;49.020;12.066;2022-09-24T03:57:12;6.40;99.90
8965;DHT22;4517;49.020;12.066;2022-09-24T03:59:40;6.40;99.90
8965;DHT22;4517;49.020;12.066;2022-09-24T04:02:06;6.50;99.90
8965;DHT22;4517;49.020;12.066;2022-09-24T04:04:32;6.60;99.90
8965;DHT22;4517;49.020;12.066;2022-09-24T04:06:57;6.60;99.90
8965;DHT22;4517;49.020;12.066;2022-09-24T04:09:23;6.70;99.90
8965;DHT22;4517;49.020;12.066;2022-09-24T04:11:49;6.80;99.90
8965;DHT22;4517;49.020;12.066;2022-09-24T04:14:17;6.90;99.90
8965;DHT22;4517;49.020;12.066;2022-09-24T04:16:42;7.00;99.90
8965;DHT22;4517;49.020;12.066;2022-09-24T04:19:10;7.10;99.90
8965;DHT22;4517;49.020;12.066;2022-09-24T04:21:36;7.20;99.90
8965;DHT22;4517;49.020;12.066;2022-09-24T04:24:02;7.20;99.90
8965;DHT22;4517;49.020;12.066;2022-09-24T04:26:28;7.30;99.90
8965;DHT22;4517;49.020;12.066;2022-09-24T04:28:53;7.40;99.90
8965;DHT22;4517;49.020;12.066;2022-09-24T04:31:19;7.40;99.90
8965;DHT22;4517;49.020;12.066;2022-09-24T04:33:45;7.40;99.90
8965;DHT22;4517;49.020;12.066;2022-09-24T04:36:10;7.40;99.90
8965;DHT22;4517;49.020;12.066;2022-09-24T04:38:36;7.40;99.90
8965;DHT22;4517;49.020;12.066;2022-09-24T04:41:06;7.40;99.90
8965;DHT22;4517;49.020;12.066;2022-09-24T04:43:31;7.40;99.90
8965;DHT22;4517;49.020;12.066;2022-09-24T04:45:57;7.40;99.90
8965;DHT22;4517;49.020;12.066;2022-09-24T04:48:24;7.40;99.90
8965;DHT22;4517;49.020;12.066;2022-09-24T04:50:49;7.40;99.90
8965;DHT22;4517;49.020;12.066;2022-09-24T04:53:15;7.40;99.90
8965;DHT22;4517;49.020;12.066;2022-09-24T04:55:40;7.40;99.90
8965;DHT22;4517;49.020;12.066;2022-09-24T04:58:06;7.30;99.90
8965;DHT22;4517;49.020;12.066;2022-09-24T05:00:31;7.40;99.90
8965;DHT22;4517;49.020;12.066;2022-09-24T05:02:58;7.40;99.90
8965;DHT22;4517;49.020;12.066;2022-09-24T05:05:25;7.30;99.90
8965;DHT22;4517;49.020;12.066;2022-09-24T05:07:50;7.30;99.90
8965;DHT22;4517;49.020;12.066;2022-09-24T05:10:17;7.20;99.90
8965;DHT22;4517;49.020;12.066;2022-09-24T05:12:42;7.30;99.90
8965;DHT22;4517;49.020;12.066;2022-09-24T05:15:08;7.30;99.90
8965;DHT22;4517;49.020;12.066;2022-09-24T05:17:40;7.20;99.90
8965;DHT22;4517;49.020;12.066;2022-09-24T05:20:06;7.30;99.90
8965;DHT22;4517;49.020;12.066;2022-09-24T05:22:32;7.30;99.90
8965;DHT22;4517;49.020;12.066;2022-09-24T05:24:57;7.30;99.90
8965;DHT22;4517;49.020;12.066;2022-09-24T05:27:23;7.40;99.90
8965;DHT22;4517;49.020;12.066;2022-09-24T05:29:49;7.40;99.90
8965;DHT22;4517;49.020;12.066;2022-09-24T05:32:16;7.50;99.90
8965;DHT22;4517;49.020;12.066;2022-09-24T05:34:44;7.50;99.90
8965;DHT22;4517;49.020;12.066;2022-09-24T05:37:10;7.60;99.90
8965;DHT22;4517;49.020;12.066;2022-09-24T05:39:36;7.70;99.90
8965;DHT22;4517;49.020;12.066;2022-09-24T05:42:02;7.80;99.90
8965;DHT22;4517;49.020;12.066;2022-09-24T05:44:29;7.90;99.90
8965;DHT22;4517;49.020;12.066;2022-09-24T05:46:56;7.90;99.90
8965;DHT22;4517;49.020;12.066;2022-09-24T05:49:22;8.00;99.90
8965;DHT22;4517;49.020;12.066;2022-09-24T05:51:48;8.10;99.90
8965;DHT22;4517;49.020;12.066;2022-09-24T05:54:14;8.20;99.90
8965;DHT22;4517;49.020;12.066;2022-09-24T05:56:40;8.30;99.90
8965;DHT22;4517;49.020;12.066;2022-09-24T05:59:06;8.30;99.90
8965;DHT22;4517;49.020;12.066;2022-09-24T06:01:31;8.50;99.90
8965;DHT22;4517;49.020;12.066;2022-09-24T06:03:57;8.60;99.90
8965;DHT22;4517;49.020;12.066;2022-09-24T06:06:24;8.60;99.90
8965;DHT22;4517;49.020;12.066;2022-09-24T06:08:50;8.70;99.90
8965;DHT22;4517;49.020;12.066;2022-09-24T06:11:16;8.80;99.90
8965;DHT22;4517;49.020;12.066;2022-09-24T06:13:41;8.90;99.90
8965;DHT22;4517;49.020;12.066;2022-09-24T06:16:09;9.00;99.90
8965;DHT22;4517;49.020;12.066;2022-09-24T06:18:36;9.10;99.90
8965;DHT22;4517;49.020;12.066;2022-09-24T06:21:10;9.30;99.90
8965;DHT22;4517;49.020;12.066;2022-09-24T06:23:37;9.40;99.90
8965;DHT22;4517;49.020;12.066;2022-09-24T06:26:04;9.50;99.90
8965;DHT22;4517;49.020;12.066;2022-09-24T06:28:31;9.70;99.90
8965;DHT22;4517;49.020;12.066;2022-09-24T06:31:00;9.80;99.90
8965;DHT22;4517;49.020;12.066;2022-09-24T06:33:26;9.80;99.90
8965;DHT22;4517;49.020;12.066;2022-09-24T06:35:52;9.90;99.90
8965;DHT22;4517;49.020;12.066;2022-09-24T06:38:18;10.00;99.90
8965;DHT22;4517;49.020;12.066;2022-09-24T06:40:44;10.10;99.90
8965;DHT22;4517;49.020;12.066;2022-09-24T06:43:11;10.10;99.90
8965;DHT22;4517;49.020;12.066;2022-09-24T06:45:38;10.20;99.90
8965;DHT22;4517;49.020;12.066;2022-09-24T06:48:06;10.10;99.90
8965;DHT22;4517;49.020;12.066;2022-09-24T06:50:33;10.10;99.90
8965;DHT22;4517;49.020;12.066;2022-09-24T06:52:58;10.20;99.90
8965;DHT22;4517;49.020;12.066;2022-09-24T06:55:24;10.10;99.90
8965;DHT22;4517;49.020;12.066;2022-09-24T06:57:50;10.10;99.90
8965;DHT22;4517;49.020;12.066;2022-09-24T07:00:25;10.10;99.90
8965;DHT22;4517;49.020;12.066;2022-09-24T07:02:50;10.10;99.90
8965;DHT22;4517;49.020;12.066;2022-09-24T07:05:16;10.20;99.90
8965;DHT22;4517;49.020;12.066;2022-09-24T07:07:41;10.30;99.90
8965;DHT22;4517;49.020;12.066;2022-09-24T07:10:08;10.20;99.90
8965;DHT22;4517;49.020;12.066;2022-09-24T07:12:34;10.30;99.90
8965;DHT22;4517;49.020;12.066;2022-09-24T07:15:01;10.30;99.90
8965;DHT22;4517;49.020;12.066;2022-09-24T07:17:28;10.30;99.90
8965;DHT22;4517;49.020;12.066;2022-09-24T07:19:53;10.20;99.90
8965;DHT22;4517;49.020;12.066;2022-09-24T07:22:20;10.20;99.90
8965;DHT22;4517;49.020;12.066;2022-09-24T07:24:46;10.20;99.90
8965;DHT22;4517;49.020;12.066;2022-09-24T07:27:12;10.20;99.90
8965;DHT22;4517;49.020;12.066;2022-09-24T07:29:38;10.20;99.90
8965;DHT22;4517;49.020;12.066;2022-09-24T07:32:04;10.20;99.90
8965;DHT22;4517;49.020;12.066;2022-09-24T07:34:30;10.30;99.90
8965;DHT22;4517;49.020;12.066;2022-09-24T07:36:56;10.30;99.90
8965;DHT22;4517;49.020;12.066;2022-09-24T07:39:23;10.40;99.90
8965;DHT22;4517;49.020;12.066;2022-09-24T07:41:48;10.50;99.90
8965;DHT22;4517;49.020;12.066;2022-09-24T07:44:19;10.70;99.90
8965;DHT22;4517;49.020;12.066;2022-09-24T07:46:48;10.60;99.90
8965;DHT22;4517;49.020;12.066;2022-09-24T07:49:15;10.70;99.90
8965;DHT22;4517;49.020;12.066;2022-09-24T07:51:40;10.90;99.90
8965;DHT22;4517;49.020;12.066;2022-09-24T07:54:07;11.10;99.90
8965;DHT22;4517;49.020;12.066;2022-09-24T07:56:33;11.30;99.90
8965;DHT22;4517;49.020;12.066;2022-09-24T07:58:59;11.50;99.90
8965;DHT22;4517;49.020;12.066;2022-09-24T08:01:25;11.70;99.90
8965;DHT22;4517;49.020;12.066;2022-09-24T08:03:51;11.90;99.90
8965;DHT22;4517;49.020;12.066;2022-09-24T08:06:17;12.20;99.90
8965;DHT22;4517;49.020;12.066;2022-09-24T08:08:43;12.40;99.90
8965;DHT22;4517;49.020;12.066;2022-09-24T08:11:11;12.70;99.90
8965;DHT22;4517;49.020;12.066;2022-09-24T08:13:37;12.90;99.90
8965;DHT22;4517;49.020;12.066;2022-09-24T08:16:04;13.00;99.90
8965;DHT22;4517;49.020;12.066;2022-09-24T08:18:31;13.30;99.90
8965;DHT22;4517;49.020;12.066;2022-09-24T08:21:01;13.40;99.90
8965;DHT22;4517;49.020;12.066;2022-09-24T08:23:27;13.20;99.90
8965;DHT22;4517;49.020;12.066;2022-09-24T08:25:53;13.30;99.90
8965;DHT22;4517;49.020;12.066;2022-09-24T08:28:19;13.40;99.90
8965;DHT22;4517;49.020;12.066;2022-09-24T08:30:45;13.50;99.90
8965;DHT22;4517;49.020;12.066;2022-09-24T08:33:11;13.40;99.90
8965;DHT22;4517;49.020;12.066;2022-09-24T08:35:37;13.30;99.90
8965;DHT22;4517;49.020;12.066;2022-09-24T08:38:04;13.30;99.90
8965;DHT22;4517;49.020;12.066;2022-09-24T08:40:35;13.20;99.90
8965;DHT22;4517;49.020;12.066;2022-09-24T08:43:38;13.30;99.90
8965;DHT22;4517;49.020;12.066;2022-09-24T08:46:16;13.30;99.90
8965;DHT22;4517;49.020;12.066;2022-09-24T08:49:04;13.20;99.90
8965;DHT22;4517;49.020;12.066;2022-09-24T08:51:37;13.20;99.90
8965;DHT22;4517;49.020;12.066;2022-09-24T08:54:08;13.30;99.90
8965;DHT22;4517;49.020;12.066;2022-09-24T08:56:37;13.30;99.90
8965;DHT22;4517;49.020;12.066;2022-09-24T08:59:24;13.50;99.90
8965;DHT22;4517;49.020;12.066;2022-09-24T09:01:54;13.60;99.90
8965;DHT22;4517;49.020;12.066;2022-09-24T09:09:47;14.10;99.90
8965;DHT22;4517;49.020;12.066;2022-09-24T09:12:22;14.10;99.90
8965;DHT22;4517;49.020;12.066;2022-09-24T09:15:02;14.50;99.90
8965;DHT22;4517;49.020;12.066;2022-09-24T09:17:58;14.70;99.90
8965;DHT22;4517;49.020;12.066;2022-09-24T09:23:19;15.10;99.90
8965;DHT22;4517;49.020;12.066;2022-09-24T09:25:49;15.50;99.90
8965;DHT22;4517;49.020;12.066;2022-09-24T09:28:18;15.80;99.90
8965;DHT22;4517;49.020;12.066;2022-09-24T09:42:24;15.80;99.90
8965;DHT22;4517;49.020;12.066;2022-09-24T09:44:50;15.70;99.90
8965;DHT22;4517;49.020;12.066;2022-09-24T09:50:09;15.70;99.90
8965;DHT22;4517;49.020;12.066;2022-09-24T09:52:37;15.80;99.90
8965;DHT22;4517;49.020;12.066;2022-09-24T09:55:04;15.80;99.90
8965;DHT22;4517;49.020;12.066;2022-09-24T09:57:30;15.80;99.90
8965;DHT22;4517;49.020;12.066;2022-09-24T09:59:58;16.00;99.90
8965;DHT22;4517;49.020;12.066;2022-09-24T10:02:31;16.20;99.90
8965;DHT22;4517;49.020;12.066;2022-09-24T10:05:02;16.30;99.90
8965;DHT22;4517;49.020;12.066;2022-09-24T10:07:28;16.40;99.90
8965;DHT22;4517;49.020;12.066;2022-09-24T10:10:18;16.70;99.90
8965;DHT22;4517;49.020;12.066;2022-09-24T10:12:44;17.00;99.90
8965;DHT22;4517;49.020;12.066;2022-09-24T10:15:21;17.30;99.90
8965;DHT22;4517;49.020;12.066;2022-09-24T10:17:52;17.30;99.90
8965;DHT22;4517;49.020;12.066;2022-09-24T10:20:27;17.00;99.90
8965;DHT22;4517;49.020;12.066;2022-09-24T10:23:02;17.10;99.90
8965;DHT22;4517;49.020;12.066;2022-09-24T10:25:30;17.30;99.90
8965;DHT22;4517;49.020;12.066;2022-09-24T10:27:58;17.20;99.90
8965;DHT22;4517;49.020;12.066;2022-09-24T10:30:55;17.00;99.90
8965;DHT22;4517;49.020;12.066;2022-09-24T10:33:22;16.80;99.90
8965;DHT22;4517;49.020;12.066;2022-09-24T10:35:48;16.70;99.90
8965;DHT22;4517;49.020;12.066;2022-09-24T10:38:19;16.90;99.90
8965;DHT22;4517;49.020;12.066;2022-09-24T10:40:46;16.90;99.90
8965;DHT22;4517;49.020;12.066;2022-09-24T10:43:17;16.90;99.90
8965;DHT22;4517;49.020;12.066;2022-09-24T10:48:41;16.80;99.90
8965;DHT22;4517;49.020;12.066;2022-09-24T10:51:45;16.70;99.90
8965;DHT22;4517;49.020;12.066;2022-09-24T10:57:06;16.60;99.90
8965;DHT22;4517;49.020;12.066;2022-09-24T11:00:13;16.60;99.90
8965;DHT22;4517;49.020;12.066;2022-09-24T11:03:02;16.70;99.90
8965;DHT22;4517;49.020;12.066;2022-09-24T11:11:35;17.10;99.90
8965;DHT22;4517;49.020;12.066;2022-09-24T11:14:41;16.90;99.90
8965;DHT22;4517;49.020;12.066;2022-09-24T11:17:31;16.90;99.90
8965;DHT22;4517;49.020;12.066;2022-09-24T11:23:20;16.90;99.90
8965;DHT22;4517;49.020;12.066;2022-09-24T11:26:02;16.80;99.90
8965;DHT22;4517;49.020;12.066;2022-09-24T11:29:08;16.80;99.90
8965;DHT22;4517;49.020;12.066;2022-09-24T11:32:14;16.70;99.90
8965;DHT22;4517;49.020;12.066;2022-09-24T11:35:04;16.70;99.90
8965;DHT22;4517;49.020;12.066;2022-09-24T11:51:01;16.40;99.90
8965;DHT22;4517;49.020;12.066;2022-09-24T11:56:00;16.20;99.90
8965;DHT22;4517;49.020;12.066;2022-09-24T11:58:35;16.20;99.90
8965;DHT22;4517;49.020;12.066;2022-09-24T12:01:10;16.00;99.90
8965;DHT22;4517;49.020;12.066;2022-09-24T12:03:49;16.10;99.90
8965;DHT22;4517;49.020;12.066;2022-09-24T12:06:20;16.10;99.90
8965;DHT22;4517;49.020;12.066;2022-09-24T12:11:33;16.00;99.90
8965;DHT22;4517;49.020;12.066;2022-09-24T12:14:13;15.90;99.90
8965;DHT22;4517;49.020;12.066;2022-09-24T12:16:42;15.90;99.90
8965;DHT22;4517;49.020;12.066;2022-09-24T12:19:18;16.00;99.90
8965;DHT22;4517;49.020;12.066;2022-09-24T12:21:47;16.00;99.90
8965;DHT22;4517;49.020;12.066;2022-09-24T12:24:32;16.00;99.90
8965;DHT22;4517;49.020;12.066;2022-09-24T12:27:01;15.90;99.90
8965;DHT22;4517;49.020;12.066;2022-09-24T12:29:34;15.90;99.90
8965;DHT22;4517;49.020;12.066;2022-09-24T12:32:33;15.70;99.90
8965;DHT22;4517;49.020;12.066;2022-09-24T12:43:33;15.50;99.90
8965;DHT22;4517;49.020;12.066;2022-09-24T12:46:04;15.50;99.90
8965;DHT22;4517;49.020;12.066;2022-09-24T12:48:32;15.40;99.90
8965;DHT22;4517;49.020;12.066;2022-09-24T12:51:02;15.50;99.90
8965;DHT22;4517;49.020;12.066;2022-09-24T12:53:34;15.60;99.90
8965;DHT22;4517;49.020;12.066;2022-09-24T12:56:02;15.80;99.90
8965;DHT22;4517;49.020;12.066;2022-09-24T12:58:39;15.90;99.90
8965;DHT22;4517;49.020;12.066;2022-09-24T13:01:11;15.90;99.90
8965;DHT22;4517;49.020;12.066;2022-09-24T13:03:39;16.10;99.90
8965;DHT22;4517;49.020;12.066;2022-09-24T13:06:31;16.00;99.90
8965;DHT22;4517;49.020;12.066;2022-09-24T13:08:58;15.70;99.90
8965;DHT22;4517;49.020;12.066;2022-09-24T13:11:27;15.80;99.90
8965;DHT22;4517;49.020;12.066;2022-09-24T13:16:40;15.70;99.90
8965;DHT22;4517;49.020;12.066;2022-09-24T13:21:56;15.60;99.90
8965;DHT22;4517;49.020;12.066;2022-09-24T13:24:31;15.70;99.90
8965;DHT22;4517;49.020;12.066;2022-09-24T13:27:24;15.80;99.90
8965;DHT22;4517;49.020;12.066;2022-09-24T13:32:35;15.80;99.90
8965;DHT22;4517;49.020;12.066;2022-09-24T13:35:08;15.80;99.90
8965;DHT22;4517;49.020;12.066;2022-09-24T13:37:40;15.70;99.90
8965;DHT22;4517;49.020;12.066;2022-09-24T13:40:30;14.90;99.90
8965;DHT22;4517;49.020;12.066;2022-09-24T13:43:10;14.40;99.90
8965;DHT22;4517;49.020;12.066;2022-09-24T13:45:40;14.20;99.90
8965;DHT22;4517;49.020;12.066;2022-09-24T13:50:50;13.80;99.90
8965;DHT22;4517;49.020;12.066;2022-09-24T13:53:22;13.50;99.90
8965;DHT22;4517;49.020;12.066;2022-09-24T13:55:54;13.70;99.90
8965;DHT22;4517;49.020;12.066;2022-09-24T13:58:35;13.90;99.90
8965;DHT22;4517;49.020;12.066;2022-09-24T14:01:04;13.90;99.90
8965;DHT22;4517;49.020;12.066;2022-09-24T14:03:33;14.00;99.90
8965;DHT22;4517;49.020;12.066;2022-09-24T14:05:59;14.20;99.90
8965;DHT22;4517;49.020;12.066;2022-09-24T14:08:26;14.30;99.90
8965;DHT22;4517;49.020;12.066;2022-09-24T14:11:05;14.30;99.90
8965;DHT22;4517;49.020;12.066;2022-09-24T14:13:34;14.30;99.90
8965;DHT22;4517;49.020;12.066;2022-09-24T14:16:16;14.30;99.90
8965;DHT22;4517;49.020;12.066;2022-09-24T14:18:43;14.20;99.90
8965;DHT22;4517;49.020;12.066;2022-09-24T14:26:34;14.30;99.90
8965;DHT22;4517;49.020;12.066;2022-09-24T14:29:06;14.20;99.90
8965;DHT22;4517;49.020;12.066;2022-09-24T14:31:47;14.20;99.90
8965;DHT22;4517;49.020;12.066;2022-09-24T14:34:24;14.10;99.90
8965;DHT22;4517;49.020;12.066;2022-09-24T14:36:54;14.10;99.90
8965;DHT22;4517;49.020;12.066;2022-09-24T14:39:24;14.10;99.90
8965;DHT22;4517;49.020;12.066;2022-09-24T14:41:50;14.10;99.90
8965;DHT22;4517;49.020;12.066;2022-09-24T14:44:23;14.30;99.90
8965;DHT22;4517;49.020;12.066;2022-09-24T14:46:55;14.40;99.90
8965;DHT22;4517;49.020;12.066;2022-09-24T14:49:23;14.50;99.90
8965;DHT22;4517;49.020;12.066;2022-09-24T14:51:55;14.50;99.90
8965;DHT22;4517;49.020;12.066;2022-09-24T14:54:35;14.40;99.90
8965;DHT22;4517;49.020;12.066;2022-09-24T14:59:41;14.20;99.90
8965;DHT22;4517;49.020;12.066;2022-09-24T15:02:20;14.20;99.90
8965;DHT22;4517;49.020;12.066;2022-09-24T15:04:49;14.10;99.90
8965;DHT22;4517;49.020;12.066;2022-09-24T15:07:18;14.10;99.90
8965;DHT22;4517;49.020;12.066;2022-09-24T15:09:50;14.00;99.90
8965;DHT22;4517;49.020;12.066;2022-09-24T15:12:25;13.90;99.90
8965;DHT22;4517;49.020;12.066;2022-09-24T15:15:25;13.80;99.90
8965;DHT22;4517;49.020;12.066;2022-09-24T15:17:51;13.70;99.90
8965;DHT22;4517;49.020;12.066;2022-09-24T15:20:17;13.60;99.90
8965;DHT22;4517;49.020;12.066;2022-09-24T15:22:42;13.40;99.90
8965;DHT22;4517;49.020;12.066;2022-09-24T15:25:12;13.40;99.90
8965;DHT22;4517;49.020;12.066;2022-09-24T15:27:39;13.30;99.90
8965;DHT22;4517;49.020;12.066;2022-09-24T15:30:11;13.30;99.90
8965;DHT22;4517;49.020;12.066;2022-09-24T15:32:37;13.30;99.90
8965;DHT22;4517;49.020;12.066;2022-09-24T15:35:04;13.20;99.90
8965;DHT22;4517;49.020;12.066;2022-09-24T15:37:36;13.20;99.90
8965;DHT22;4517;49.020;12.066;2022-09-24T15:40:22;13.10;99.90
8965;DHT22;4517;49.020;12.066;2022-09-24T15:42:50;13.10;99.90
8965;DHT22;4517;49.020;12.066;2022-09-24T15:45:21;13.10;99.90
8965;DHT22;4517;49.020;12.066;2022-09-24T15:47:48;13.00;99.90
8965;DHT22;4517;49.020;12.066;2022-09-24T15:50:13;13.00;99.90
8965;DHT22;4517;49.020;12.066;2022-09-24T15:53:03;13.00;99.90
8965;DHT22;4517;49.020;12.066;2022-09-24T15:55:28;13.00;99.90
8965;DHT22;4517;49.020;12.066;2022-09-24T15:57:55;12.90;99.90
8965;DHT22;4517;49.020;12.066;2022-09-24T16:00:23;13.00;99.90
8965;DHT22;4517;49.020;12.066;2022-09-24T16:02:54;12.90;99.90
8965;DHT22;4517;49.020;12.066;2022-09-24T16:05:20;12.90;99.90
8965;DHT22;4517;49.020;12.066;2022-09-24T16:07:46;12.90;99.90
8965;DHT22;4517;49.020;12.066;2022-09-24T16:10:13;12.90;99.90
8965;DHT22;4517;49.020;12.066;2022-09-24T16:12:40;12.90;99.90
8965;DHT22;4517;49.020;12.066;2022-09-24T16:15:06;12.90;99.90
8965;DHT22;4517;49.020;12.066;2022-09-24T16:17:32;12.90;99.90
8965;DHT22;4517;49.020;12.066;2022-09-24T16:19:57;12.80;99.90
8965;DHT22;4517;49.020;12.066;2022-09-24T16:22:23;12.80;99.90
8965;DHT22;4517;49.020;12.066;2022-09-24T16:24:49;12.90;99.90
8965;DHT22;4517;49.020;12.066;2022-09-24T16:27:14;12.80;99.90
8965;DHT22;4517;49.020;12.066;2022-09-24T16:29:40;12.90;99.90
8965;DHT22;4517;49.020;12.066;2022-09-24T16:32:05;12.90;99.90
8965;DHT22;4517;49.020;12.066;2022-09-24T16:34:31;12.80;99.90
8965;DHT22;4517;49.020;12.066;2022-09-24T16:36:57;12.90;99.90
8965;DHT22;4517;49.020;12.066;2022-09-24T16:39:22;12.80;99.90
8965;DHT22;4517;49.020;12.066;2022-09-24T16:41:48;12.80;99.90
8965;DHT22;4517;49.020;12.066;2022-09-24T16:44:15;12.80;99.90
8965;DHT22;4517;49.020;12.066;2022-09-24T16:46:41;12.80;99.90
8965;DHT22;4517;49.020;12.066;2022-09-24T16:49:07;12.70;99.90
8965;DHT22;4517;49.020;12.066;2022-09-24T16:51:33;12.70;99.90
8965;DHT22;4517;49.020;12.066;2022-09-24T16:53:58;12.60;99.90
8965;DHT22;4517;49.020;12.066;2022-09-24T16:56:24;12.60;99.90
8965;DHT22;4517;49.020;12.066;2022-09-24T16:58:50;12.60;99.90
8965;DHT22;4517;49.020;12.066;2022-09-24T17:01:19;12.60;99.90
8965;DHT22;4517;49.020;12.066;2022-09-24T17:03:52;12.60;99.90
8965;DHT22;4517;49.020;12.066;2022-09-24T17:06:20;12.50;99.90
8965;DHT22;4517;49.020;12.066;2022-09-24T17:08:47;12.50;99.90
8965;DHT22;4517;49.020;12.066;2022-09-24T17:11:31;12.40;99.90
8965;DHT22;4517;49.020;12.066;2022-09-24T17:13:56;12.40;99.90
8965;DHT22;4517;49.020;12.066;2022-09-24T17:16:22;12.40;99.90
8965;DHT22;4517;49.020;12.066;2022-09-24T17:18:49;12.40;99.90
8965;DHT22;4517;49.020;12.066;2022-09-24T17:21:15;12.30;99.90
8965;DHT22;4517;49.020;12.066;2022-09-24T17:23:42;12.30;99.90
8965;DHT22;4517;49.020;12.066;2022-09-24T17:26:13;12.30;99.90
8965;DHT22;4517;49.020;12.066;2022-09-24T17:28:44;12.30;99.90
8965;DHT22;4517;49.020;12.066;2022-09-24T17:31:12;12.30;99.90
8965;DHT22;4517;49.020;12.066;2022-09-24T17:33:38;12.30;99.90
8965;DHT22;4517;49.020;12.066;2022-09-24T17:36:07;12.30;99.90
8965;DHT22;4517;49.020;12.066;2022-09-24T17:38:34;12.30;99.90
8965;DHT22;4517;49.020;12.066;2022-09-24T17:41:05;12.30;99.90
8965;DHT22;4517;49.020;12.066;2022-09-24T17:43:32;12.30;99.90
8965;DHT22;4517;49.020;12.066;2022-09-24T17:45:59;12.30;99.90
8965;DHT22;4517;49.020;12.066;2022-09-24T17:48:28;12.20;99.90